KFEW

Francis E Warren AFB Heliport

Cheyenne, Wyoming, USA
METAR KFEW 151258Z AUTO 33011G17KT 10SM FEW170 SCT220 01/M13 A3002 RMK AO2 PK WND 30026/36 SLP200 T00101133 $
Observed Flight Rules
Dec-15 @ 12:58 UTC (an hour ago) Visual Flight Rules
Wind Visibility Clouds
330° at 11 knots
 Gusting to 17 knots
10 miles
  • Few at 17,000' AGL
  • Scattered at 22,000' AGL
Temperatures Readings
Current 1°C / 34°F
Dewpoint -13°C / 9°F
Humidity 35%
Altimeter 30.02" Hg
Pressure 1020 hPa
Elevation 1878
METAR KFEW 151258Z AUTO 33011G17KT 10SM FEW170 SCT220 01/M13 A3002 RMK AO2 PK WND 30026/36 SLP200 T00101133 $
Observed Flight Rules
Dec-15 @ 12:58 UTC
(an hour ago)
VFR
Wind Visibility
330° at 11 knots
 Gusting to 17 knots
10 miles
Clouds
  • Few at 17,000' AGL
  • Scattered at 22,000' AGL
Temperature Dewpoint
1°C / 34°F -13°C / 9°F
Humidity Altimeter Pressure
35% 30.02" Hg 1020 hPa